Terminal Aerodrome Forecast
Issued by NWS Sterling, VA

Home | Current Version | Previous Version | Text Only | Print | Product List | Glossary On
Versions: 1 2 3 4 5 6 7 8 9 10 11 12 13 14 15
000
FTUS41 KLWX 301135
TAFCHO
TAF
KCHO 301135Z 3012/0112 VRB03KT P6SM SCT050
     FM301400 20005KT P6SM BKN050
     FM301700 20009KT P6SM BKN050
     FM301900 20010G17KT P6SM VCTS BKN050CB
     FM010000 21005KT P6SM BKN050
     FM010800 00000KT P6SM BKN070
     FM011100 00000KT P6SM SCT070=

USA.gov is the U.S. government's official web portal to all federal, state and local government web resources and services.